Skip Navigation Links
NOAA logo - Click to go to the NOAA homepage
NOAA's National Weather Service
Alaska Aviation Weather Unit
  NWS logo - Click to go to the NWS homepage
Left Navbar Graphic     22 AKDT = 06 GMT

   
NOAA is celebrating 200 years of science, service, and stewardship. Visit the NOAA 200th celebration Web site to learn more.
USA.gov is the U.S. Government's official Web portal to all Federal, state and local government Web resources and services.
Facebook
NWS on Facebook

Important Change Regarding the AAWU Web Presence

 

Over the last several months, the AAWU has been working to navigate its webpages to a nationally supported server. Security, as well as other needs, have necessitated the change.  We have been given an extension for the site changeover while we diligently work at addressing feedback received. As of July 14, 2017, aawu.arh.noaa.gov will be discontinued. The new AAWU web address is weather.gov/aawu. It is now live and will run in-parallel with the old site until it is discontinued on July 14, 2017. Please continue to send any feedback or questions regarding the new webpages to nws.ar.aawu.webauthors@noaa.gov.  Thank you for your patience during this time of transition.
AAWU Home :: Display TAF Add Bookmark
TAF PASI 260545Z 2606/2706 VRB04KT P6SM -RA FEW010 SCT025 OVC040
     FM261000 02004KT P6SM -RA BKN025 OVC040
     FM262000 09005KT P6SM -RA BKN025 OVC040
     FM270400 VRB04KT 5SM -RA BKN015 OVC025=

METAR PASI 260053Z 23006KT 10SM SCT015 OVC045 14/13 A2999= METAR PASI 260153Z 00000KT 10SM FEW015 OVC045 14/13 A2998= METAR PASI 260253Z 27003KT 10SM FEW015 OVC046 14/13 A2996= METAR PASI 260353Z 21003KT 10SM -RA SCT015 OVC049 14/13 A2995= METAR PASI 260453Z 00000KT 10SM SCT010 SCT025 OVC048 14/13 A2994= METAR PASI 260553Z 00000KT 10SM SCT010 OVC050 14/13 A2993=
 Alaska TAF Map

NOAA's National Weather Service
Alaska Aviation Weather Unit
6930 Sand Lake Road
Anchorage, AK 99502-1845
Disclaimer
Credits
Glossary
Privacy Policy
About Us
Career Opportunities
Contact AAWU Internet Services Site last modified: April, 17th 2012